Time;durP1;ratioP1;P1;durP2;ratioP2;P2;SDS_P1;SDS_P2;PMS_P1;PMS_P2;Temp;Humidity;BMP_temperature;BMP_pressure;BME280_temperature;BME280_humidity;BME280_pressure;Samples;Min_cycle;Max_cycle;Signal;HPM_P1;HPM_P2
2022/12/15 00:39:58;;;;;;;13.00;6.90;;;-2.20;99.90;;;;;;4992005;28;20828;-61
2022/12/15 00:42:27;;;;;;;16.05;7.15;;;-2.20;99.90;;;;;;4986638;28;20043;-61
2022/12/15 00:44:54;;;;;;;10.75;6.43;;;-2.20;99.90;;;;;;4978739;28;20739;-61
2022/12/15 00:47:20;;;;;;;11.82;6.93;;;-2.30;99.90;;;;;;4989024;28;21926;-61
2022/12/15 01:20:17;;;;;;;7.63;3.95;;;-2.50;99.90;;;;;;5023020;28;20353;-60
2022/12/15 01:22:48;;;;;;;6.63;4.33;;;-2.50;99.90;;;;;;5030647;28;20386;-61
2022/12/15 01:25:16;;;;;;;10.13;4.20;;;-2.50;99.90;;;;;;5028400;28;20049;-61
2022/12/15 01:27:42;;;;;;;8.05;4.13;;;-2.40;99.90;;;;;;5031058;28;20072;-61
2022/12/15 01:30:09;;;;;;;8.45;4.05;;;-2.40;99.90;;;;;;5038786;28;20052;-60
2022/12/15 01:32:36;;;;;;;9.88;4.18;;;-2.40;99.90;;;;;;5035324;28;20048;-61
2022/12/15 01:35:05;;;;;;;9.38;4.13;;;-2.40;99.90;;;;;;5024372;28;20126;-61
2022/12/15 01:37:31;;;;;;;7.85;3.85;;;-2.40;99.90;;;;;;5037229;28;20048;-61
2022/12/15 01:42:41;;;;;;;8.10;3.50;;;-2.50;99.90;;;;;;5030969;28;20041;-61
2022/12/15 01:45:25;;;;;;;6.65;3.58;;;-2.50;99.90;;;;;;5032894;28;20377;-61
2022/12/15 01:48:10;;;;;;;5.65;3.80;;;-2.50;99.90;;;;;;5033519;28;20117;-60
2022/12/15 01:50:44;;;;;;;7.50;3.75;;;-2.50;99.90;;;;;;5027821;28;20063;-61
2022/12/15 01:53:12;;;;;;;7.55;3.50;;;-2.50;99.90;;;;;;5026602;28;20053;-61
2022/12/15 01:55:41;;;;;;;7.05;3.65;;;-2.50;99.90;;;;;;5025653;28;20760;-61
2022/12/15 01:58:08;;;;;;;8.32;3.70;;;-2.50;99.90;;;;;;5029637;28;20045;-61
2022/12/15 02:00:34;;;;;;;10.73;4.00;;;-2.50;99.90;;;;;;5029701;28;20045;-61
2022/12/15 02:03:01;;;;;;;6.68;3.75;;;-2.50;99.90;;;;;;5030233;28;21666;-61
2022/12/15 02:05:30;;;;;;;14.20;4.25;;;-2.50;99.90;;;;;;5008186;28;20936;-61
2022/12/15 02:07:58;;;;;;;10.00;4.10;;;-2.50;99.90;;;;;;5037447;28;20037;-60
2022/12/15 02:10:28;;;;;;;9.98;4.50;;;-2.50;99.90;;;;;;5028246;28;20048;-64
2022/12/15 02:13:18;;;;;;;10.18;4.93;;;-2.50;99.90;;;;;;5028038;28;20142;-60
2022/12/15 02:15:52;;;;;;;10.98;5.25;;;-2.50;99.90;;;;;;5026445;28;20068;-63
2022/12/15 02:18:41;;;;;;;12.13;5.13;;;-2.50;99.90;;;;;;5032189;28;20053;-61
2022/12/15 02:21:18;;;;;;;10.38;5.20;;;-2.50;99.90;;;;;;5030526;28;20083;-61
2022/12/15 02:24:03;;;;;;;15.43;5.93;;;-2.50;99.90;;;;;;5030387;28;20054;-61
2022/12/15 02:27:06;;;;;;;10.38;6.05;;;-2.50;99.90;;;;;;5030063;28;20041;-60
2022/12/15 02:29:38;;;;;;;13.82;5.78;;;-2.50;99.90;;;;;;5029183;28;20604;-60
2022/12/15 02:32:10;;;;;;;12.13;6.23;;;-2.50;99.90;;;;;;5030970;28;20103;-60
2022/12/15 02:34:46;;;;;;;9.90;5.38;;;-2.50;99.90;;;;;;5029094;28;20098;-61
2022/12/15 02:37:12;;;;;;;13.13;5.22;;;-2.40;99.90;;;;;;5009315;28;20048;-61
2022/12/15 02:39:37;;;;;;;8.57;5.25;;;-2.40;99.90;;;;;;5026835;28;20365;-60
2022/12/15 02:42:03;;;;;;;13.30;5.47;;;-2.40;99.90;;;;;;5027298;28;20091;-61
2022/12/15 02:44:44;;;;;;;10.20;4.97;;;-2.30;99.90;;;;;;5028612;28;20061;-61
2022/12/15 02:47:36;;;;;;;9.13;4.75;;;-2.30;99.90;;;;;;5028878;28;20532;-61
2022/12/15 02:50:30;;;;;;;5.95;4.28;;;-2.40;99.90;;;;;;5025707;28;20158;-60
2022/12/15 02:53:13;;;;;;;10.90;4.60;;;-2.40;99.90;;;;;;5027666;28;20140;-61
2022/12/15 02:55:57;;;;;;;7.60;4.70;;;-2.40;99.90;;;;;;5027500;28;20045;-61
2022/12/15 02:58:27;;;;;;;8.70;4.60;;;-2.50;99.90;;;;;;5029625;28;20500;-60
2022/12/15 03:01:03;;;;;;;8.18;4.60;;;-2.50;99.90;;;;;;5025617;28;20048;-61
2022/12/15 03:03:31;;;;;;;10.48;4.90;;;-2.50;99.90;;;;;;5042809;28;20514;-61
2022/12/15 03:05:57;;;;;;;8.50;4.95;;;-2.50;99.90;;;;;;5025839;28;20393;-61
2022/12/15 03:08:23;;;;;;;9.23;5.13;;;-2.50;99.90;;;;;;5028322;28;20037;-61
2022/12/15 03:10:51;;;;;;;9.50;4.65;;;-2.50;99.90;;;;;;5025035;28;20495;-61
2022/12/15 03:13:17;;;;;;;14.55;5.35;;;-2.50;99.90;;;;;;5026476;28;20045;-60
2022/12/15 03:15:43;;;;;;;8.30;5.00;;;-2.50;99.90;;;;;;5023674;28;20045;-61
2022/12/15 03:18:09;;;;;;;9.18;4.93;;;-2.50;99.90;;;;;;5029596;28;20042;-61
2022/12/15 03:20:35;;;;;;;10.65;5.40;;;-2.50;99.90;;;;;;5025317;28;20068;-61
2022/12/15 03:23:01;;;;;;;11.32;4.95;;;-2.60;99.90;;;;;;5033686;28;20049;-60
2022/12/15 03:25:27;;;;;;;9.93;5.45;;;-2.60;99.90;;;;;;5027982;28;20045;-60
2022/12/15 03:27:53;;;;;;;18.05;6.15;;;-2.60;99.90;;;;;;5026565;28;20092;-61
2022/12/15 03:30:19;;;;;;;12.73;5.57;;;-2.70;99.90;;;;;;5028608;28;20041;-61
2022/12/15 03:32:45;;;;;;;11.32;4.45;;;-2.70;99.90;;;;;;5032457;28;20080;-60
2022/12/15 03:35:12;;;;;;;14.10;4.13;;;-2.70;99.90;;;;;;5029979;28;20045;-61
2022/12/15 03:37:38;;;;;;;8.30;3.97;;;-2.70;99.90;;;;;;5031135;28;20056;-60
2022/12/15 03:40:05;;;;;;;6.47;3.58;;;-2.70;99.90;;;;;;5030505;28;20071;-61
2022/12/15 03:42:47;;;;;;;7.15;2.97;;;-2.70;99.90;;;;;;5027582;28;20059;-61
2022/12/15 03:45:17;;;;;;;8.20;2.92;;;-2.70;99.90;;;;;;5031777;28;20045;-61
2022/12/15 03:47:44;;;;;;;7.00;2.75;;;-2.70;99.90;;;;;;5029361;28;20076;-61
2022/12/15 03:50:11;;;;;;;5.53;2.58;;;-2.80;99.90;;;;;;5031881;28;20036;-60
2022/12/15 03:52:37;;;;;;;4.43;2.50;;;-2.80;99.90;;;;;;5028776;28;20091;-60
2022/12/15 03:55:04;;;;;;;9.82;2.63;;;-2.80;99.90;;;;;;5026036;28;20131;-61
2022/12/15 03:57:30;;;;;;;4.85;2.38;;;-2.80;99.90;;;;;;5026213;28;20052;-61
2022/12/15 03:59:56;;;;;;;4.32;2.10;;;-2.90;99.90;;;;;;5009615;28;20049;-60
2022/12/15 04:02:22;;;;;;;10.80;2.58;;;-2.90;99.90;;;;;;5027208;28;20139;-61
2022/12/15 04:04:47;;;;;;;6.07;2.38;;;-2.80;99.90;;;;;;5029112;28;20074;-60
2022/12/15 04:07:14;;;;;;;5.43;2.17;;;-2.90;99.90;;;;;;5029396;28;20048;-61
2022/12/15 04:09:40;;;;;;;4.63;2.00;;;-2.90;99.90;;;;;;5025534;28;20063;-61
2022/12/15 04:12:06;;;;;;;5.90;2.17;;;-2.90;99.90;;;;;;5024288;28;20072;-60
2022/12/15 04:14:32;;;;;;;5.38;2.38;;;-2.90;99.90;;;;;;5028616;28;20530;-61
2022/12/15 04:16:58;;;;;;;4.72;2.10;;;-2.90;99.90;;;;;;5026020;28;20041;-61
2022/12/15 04:22:08;;;;;;;9.05;2.20;;;-2.80;99.90;;;;;;5030566;28;20053;-60
2022/12/15 05:33:15;;;;;;;9.25;4.47;;;-2.20;99.90;;;;;;5033542;28;20130;-61
2022/12/15 05:35:40;;;;;;;10.68;4.82;;;-2.20;99.90;;;;;;5033804;28;20057;-61
2022/12/15 05:38:06;;;;;;;12.40;5.50;;;-2.10;99.90;;;;;;5040993;28;20056;-61
2022/12/15 05:40:32;;;;;;;11.10;6.15;;;-2.10;99.90;;;;;;5029861;28;21407;-60
2022/12/15 05:42:59;;;;;;;13.98;5.75;;;-2.10;99.90;;;;;;5031201;28;20041;-61
2022/12/15 05:45:25;;;;;;;15.05;6.47;;;-2.10;99.90;;;;;;5029433;28;20130;-61
2022/12/15 05:47:52;;;;;;;12.10;5.65;;;-2.00;99.90;;;;;;5032125;28;20037;-61
2022/12/15 05:50:19;;;;;;;16.40;5.05;;;-2.00;99.90;;;;;;5034185;28;20472;-61
2022/12/15 05:52:45;;;;;;;13.57;5.55;;;-2.00;99.90;;;;;;5028835;28;20072;-61
2022/12/15 05:55:11;;;;;;;12.75;5.30;;;-2.00;99.90;;;;;;5030081;28;20515;-61
2022/12/15 05:57:37;;;;;;;11.15;5.78;;;-2.00;99.90;;;;;;5031173;28;20063;-60
2022/12/15 06:00:04;;;;;;;12.13;5.93;;;-2.00;99.90;;;;;;5045776;28;20045;-61
2022/12/15 06:02:30;;;;;;;14.00;5.30;;;-2.00;99.90;;;;;;5028141;28;20088;-60
2022/12/15 06:04:56;;;;;;;11.05;5.57;;;-2.00;99.90;;;;;;5026923;28;20038;-61
2022/12/15 06:07:22;;;;;;;11.43;5.40;;;-2.00;99.90;;;;;;5028180;28;20455;-61
2022/12/15 06:09:48;;;;;;;11.32;5.38;;;-2.00;99.90;;;;;;5029524;28;20118;-60
2022/12/15 06:12:13;;;;;;;10.73;6.40;;;-2.00;99.90;;;;;;5025613;28;20139;-60
2022/12/15 06:14:39;;;;;;;12.07;5.30;;;-1.90;99.90;;;;;;5026337;28;20049;-60
2022/12/15 06:17:05;;;;;;;11.65;5.90;;;-1.90;99.90;;;;;;5029681;28;20400;-60
2022/12/15 06:19:31;;;;;;;12.93;5.75;;;-1.90;99.90;;;;;;5030099;28;20761;-61
2022/12/15 06:21:57;;;;;;;15.82;6.30;;;-1.90;99.90;;;;;;5028870;28;20060;-60
2022/12/15 06:24:23;;;;;;;12.80;6.50;;;-1.90;99.90;;;;;;5012484;28;20042;-61
2022/12/15 06:26:49;;;;;;;14.80;6.30;;;-1.90;99.90;;;;;;5031348;28;20049;-61
2022/12/15 06:29:15;;;;;;;11.05;6.30;;;-1.90;99.90;;;;;;5033892;28;20045;-60
2022/12/15 06:31:41;;;;;;;11.85;6.10;;;-1.90;99.90;;;;;;5028345;28;20056;-61
2022/12/15 06:34:10;;;;;;;14.88;6.45;;;-1.90;99.90;;;;;;5035678;28;20597;-61
2022/12/15 06:36:37;;;;;;;13.23;6.03;;;-1.90;99.90;;;;;;5022632;28;20441;-61
2022/12/15 06:39:05;;;;;;;15.38;6.25;;;-1.90;99.90;;;;;;5028935;28;20083;-60
2022/12/15 06:41:31;;;;;;;11.05;6.15;;;-1.90;99.90;;;;;;5018622;28;20148;-61
2022/12/15 06:43:58;;;;;;;17.70;6.45;;;-1.90;99.90;;;;;;5025762;28;20045;-60
2022/12/15 06:46:25;;;;;;;10.90;6.57;;;-1.90;99.90;;;;;;5013939;28;20415;-61
2022/12/15 06:48:52;;;;;;;11.52;6.30;;;-1.80;99.90;;;;;;5028627;28;20113;-60
2022/12/15 06:51:17;;;;;;;12.35;6.13;;;-1.80;99.90;;;;;;5032707;28;20053;-62
2022/12/15 06:53:54;;;;;;;11.75;6.28;;;-1.80;99.90;;;;;;5024446;28;20041;-61
2022/12/15 06:56:31;;;;;;;13.90;6.72;;;-1.80;99.90;;;;;;5024391;28;20049;-60
2022/12/15 06:58:58;;;;;;;17.40;6.72;;;-1.80;99.90;;;;;;5029188;28;20037;-60
2022/12/15 07:01:24;;;;;;;15.55;7.13;;;-1.80;99.90;;;;;;5026833;28;20053;-60
2022/12/15 07:03:51;;;;;;;19.77;7.45;;;-1.80;99.90;;;;;;5028215;28;20045;-60
2022/12/15 07:06:18;;;;;;;11.50;7.15;;;-1.70;99.90;;;;;;5025830;28;20052;-61
2022/12/15 07:08:51;;;;;;;15.18;7.25;;;-1.60;99.90;;;;;;5028066;28;20045;-60
2022/12/15 07:11:19;;;;;;;15.10;7.45;;;-1.70;99.90;;;;;;5022039;28;20072;-61
2022/12/15 07:13:49;;;;;;;13.55;8.15;;;-1.70;99.90;;;;;;5022028;28;20053;-60
2022/12/15 07:16:15;;;;;;;14.68;7.53;;;-1.70;99.90;;;;;;5021862;28;20048;-67
2022/12/15 07:18:41;;;;;;;16.17;7.32;;;-1.70;99.90;;;;;;5030971;28;20041;-67
2022/12/15 07:21:08;;;;;;;14.35;7.78;;;-1.70;99.90;;;;;;5033943;28;20092;-65
2022/12/15 07:23:35;;;;;;;15.05;7.90;;;-1.70;99.90;;;;;;5020116;28;20045;-60
2022/12/15 07:26:06;;;;;;;17.67;9.15;;;-1.70;99.90;;;;;;5028437;28;20178;-61
2022/12/15 07:28:32;;;;;;;15.63;8.30;;;-1.70;99.90;;;;;;5031257;28;20041;-62
2022/12/15 07:31:04;;;;;;;14.90;7.60;;;-1.60;99.90;;;;;;5030232;28;20043;-61
2022/12/15 07:33:34;;;;;;;14.57;7.88;;;-1.60;99.90;;;;;;5029367;28;20139;-60
2022/12/15 07:36:01;;;;;;;15.02;8.27;;;-1.60;99.90;;;;;;5030094;28;20041;-61
2022/12/15 07:38:27;;;;;;;12.80;7.63;;;-1.60;99.90;;;;;;5031266;28;20053;-61
2022/12/15 07:40:53;;;;;;;18.17;7.97;;;-1.60;99.90;;;;;;5030429;28;20045;-60
2022/12/15 07:43:20;;;;;;;14.45;7.85;;;-1.60;99.90;;;;;;5029999;28;20072;-61
2022/12/15 07:45:51;;;;;;;15.05;8.00;;;-1.60;99.90;;;;;;5029698;28;20041;-61
2022/12/15 07:48:18;;;;;;;16.90;7.68;;;-1.60;99.90;;;;;;5029835;28;20380;-60
2022/12/15 07:50:44;;;;;;;23.15;7.85;;;-1.50;99.90;;;;;;5031780;28;20044;-60
2022/12/15 07:53:10;;;;;;;15.35;7.93;;;-1.50;99.90;;;;;;5030761;28;20757;-60
2022/12/15 07:55:36;;;;;;;18.75;7.72;;;-1.50;99.90;;;;;;5028341;28;20095;-61
2022/12/15 07:58:02;;;;;;;13.02;7.07;;;-1.50;99.90;;;;;;5029877;28;20403;-61
2022/12/15 08:00:28;;;;;;;16.27;7.32;;;-1.50;99.90;;;;;;5026092;28;20044;-60
2022/12/15 08:02:54;;;;;;;15.50;7.70;;;-1.50;99.90;;;;;;5024748;28;20053;-61
2022/12/15 08:05:20;;;;;;;17.00;7.82;;;-1.40;99.90;;;;;;5024888;28;20055;-60
2022/12/15 08:07:45;;;;;;;13.82;7.38;;;-1.40;99.90;;;;;;5031454;28;20083;-60
2022/12/15 08:10:11;;;;;;;14.80;7.28;;;-1.30;99.90;;;;;;5029423;28;20040;-60
2022/12/15 08:12:37;;;;;;;18.65;7.70;;;-1.40;99.90;;;;;;5030818;28;20166;-60
2022/12/15 08:15:03;;;;;;;18.60;8.23;;;-1.30;99.90;;;;;;5031132;28;20150;-60
2022/12/15 08:17:29;;;;;;;15.30;7.20;;;-1.30;99.90;;;;;;5035981;28;20136;-59
2022/12/15 08:19:55;;;;;;;20.38;7.38;;;-1.30;99.90;;;;;;5029634;28;20053;-60
2022/12/15 08:22:21;;;;;;;13.00;7.32;;;-1.30;99.90;;;;;;5030627;28;20060;-60
2022/12/15 08:24:47;;;;;;;12.90;7.93;;;-1.30;99.90;;;;;;5029957;28;20029;-60
2022/12/15 08:27:13;;;;;;;16.17;7.38;;;-1.30;99.90;;;;;;5038417;28;20504;-60
2022/12/15 08:29:40;;;;;;;16.50;7.68;;;-1.30;99.90;;;;;;5036354;28;20052;-60
2022/12/15 08:32:06;;;;;;;16.85;7.60;;;-1.30;99.90;;;;;;5029868;28;20201;-60
2022/12/15 08:34:32;;;;;;;18.50;7.88;;;-1.30;99.90;;;;;;5031550;28;20096;-60
2022/12/15 08:36:57;;;;;;;17.77;8.43;;;-1.20;99.90;;;;;;5030952;28;20049;-59
2022/12/15 08:39:23;;;;;;;16.25;8.05;;;-1.20;99.90;;;;;;5028797;28;20120;-59
2022/12/15 08:41:49;;;;;;;16.55;8.05;;;-1.20;99.90;;;;;;5029117;28;20488;-60
2022/12/15 08:44:16;;;;;;;17.40;8.35;;;-1.20;99.90;;;;;;5028479;28;20076;-60
2022/12/15 08:46:41;;;;;;;14.48;8.18;;;-1.20;99.90;;;;;;5015339;28;20064;-59
2022/12/15 08:49:08;;;;;;;13.93;8.25;;;-1.10;99.90;;;;;;5028864;28;20038;-59
2022/12/15 08:51:34;;;;;;;16.85;8.10;;;-1.10;99.90;;;;;;5027654;28;20117;-59
2022/12/15 08:54:01;;;;;;;20.63;8.60;;;-1.10;99.90;;;;;;5032743;28;20045;-60
2022/12/15 08:56:27;;;;;;;18.25;8.63;;;-1.10;99.90;;;;;;5027276;28;20076;-59
2022/12/15 08:58:56;;;;;;;21.10;8.35;;;-1.00;99.90;;;;;;5030675;28;20052;-60
2022/12/15 09:01:23;;;;;;;25.92;9.13;;;-0.90;99.90;;;;;;5031288;28;20083;-59
2022/12/15 09:03:53;;;;;;;13.32;8.50;;;-0.90;99.90;;;;;;5034247;28;20542;-59
2022/12/15 09:06:21;;;;;;;18.17;9.45;;;-0.90;99.90;;;;;;5033421;28;20499;-60
2022/12/15 09:08:47;;;;;;;14.90;8.73;;;-0.80;99.90;;;;;;5032341;28;20192;-59
2022/12/15 09:11:13;;;;;;;17.27;7.82;;;-0.80;99.90;;;;;;5034108;28;20049;-59
2022/12/15 09:13:39;;;;;;;13.75;7.68;;;-0.70;99.90;;;;;;5032043;28;20428;-60
2022/12/15 09:16:12;;;;;;;16.98;7.53;;;-0.70;99.90;;;;;;5033353;28;20564;-59
2022/12/15 09:18:40;;;;;;;19.73;8.02;;;-0.70;99.90;;;;;;5033626;28;20175;-59
2022/12/15 09:21:06;;;;;;;15.65;7.53;;;-0.60;99.90;;;;;;5032582;28;20081;-60
2022/12/15 09:23:33;;;;;;;20.02;8.05;;;-0.60;99.90;;;;;;5031824;28;20068;-60
2022/12/15 09:26:13;;;;;;;18.33;8.75;;;-0.50;99.90;;;;;;5034810;28;20044;-59
2022/12/15 09:28:39;;;;;;;19.95;7.82;;;-0.40;99.90;;;;;;5032422;28;20044;-60
2022/12/15 09:31:13;;;;;;;14.32;7.90;;;-0.40;99.90;;;;;;5030261;28;20053;-59
2022/12/15 09:33:41;;;;;;;17.50;10.05;;;-0.30;99.90;;;;;;5033518;28;20451;-59
2022/12/15 09:36:08;;;;;;;25.33;12.80;;;-0.20;99.90;;;;;;5032614;28;20122;-59
2022/12/15 09:38:39;;;;;;;27.48;12.07;;;-0.20;99.90;;;;;;5034709;28;20060;-60
2022/12/15 09:41:13;;;;;;;25.67;15.20;;;-0.10;99.90;;;;;;5032162;28;20060;-60
2022/12/15 09:43:58;;;;;;;26.90;13.15;;;-0.10;99.90;;;;;;5030439;28;20104;-59
2022/12/15 09:47:06;;;;;;;14.57;9.20;;;0.00;99.90;;;;;;5032379;28;20048;-59
2022/12/15 09:49:51;;;;;;;14.95;8.95;;;0.10;99.90;;;;;;4993614;28;20052;-59
2022/12/15 09:52:51;;;;;;;15.63;8.52;;;0.10;99.90;;;;;;5032789;28;20049;-60
2022/12/15 09:55:20;;;;;;;20.23;9.10;;;0.20;99.90;;;;;;5021375;28;20518;-60
2022/12/15 09:57:54;;;;;;;13.48;8.15;;;0.20;99.90;;;;;;5031632;28;20045;-60
2022/12/15 10:00:30;;;;;;;17.75;8.48;;;0.30;99.90;;;;;;5032567;28;20084;-60
2022/12/15 10:03:22;;;;;;;17.42;8.68;;;0.30;99.90;;;;;;5032979;28;20128;-59
2022/12/15 10:06:00;;;;;;;23.65;8.85;;;0.40;99.90;;;;;;5032908;28;20168;-60
2022/12/15 10:08:31;;;;;;;13.00;8.00;;;0.50;99.90;;;;;;5032923;28;20597;-59
2022/12/15 10:11:16;;;;;;;19.10;9.57;;;0.60;99.90;;;;;;5036335;28;20045;-57
2022/12/15 10:13:56;;;;;;;14.88;8.52;;;0.70;99.90;;;;;;5033331;28;20047;-60
2022/12/15 10:16:35;;;;;;;16.73;9.50;;;0.80;99.90;;;;;;5031709;28;20403;-60
2022/12/15 10:19:07;;;;;;;15.82;9.13;;;0.90;99.90;;;;;;5033435;28;20071;-59
2022/12/15 10:21:35;;;;;;;14.52;9.00;;;1.00;99.90;;;;;;4994608;28;20066;-59
2022/12/15 10:24:23;;;;;;;14.68;8.48;;;1.10;99.90;;;;;;5034043;28;20068;-59
2022/12/15 10:27:01;;;;;;;16.70;8.18;;;1.20;99.90;;;;;;5030233;28;20034;-59
2022/12/15 10:29:43;;;;;;;18.63;8.90;;;1.30;99.90;;;;;;5031301;28;20044;-59
2022/12/15 10:32:16;;;;;;;16.52;8.40;;;1.40;99.90;;;;;;5031071;28;20154;-59
2022/12/15 10:34:42;;;;;;;18.35;8.52;;;1.40;99.90;;;;;;5032123;28;20048;-59
2022/12/15 10:37:16;;;;;;;16.85;8.98;;;1.60;99.90;;;;;;5031467;28;20044;-60
2022/12/15 10:39:45;;;;;;;14.25;8.13;;;1.60;99.90;;;;;;5029767;28;20084;-60
2022/12/15 10:42:25;;;;;;;15.38;8.45;;;1.70;99.90;;;;;;5032164;28;20534;-61
2022/12/15 10:44:53;;;;;;;15.07;8.35;;;1.70;99.90;;;;;;5028747;28;20073;-59
2022/12/15 10:47:25;;;;;;;12.82;7.65;;;1.80;99.90;;;;;;5031655;28;20045;-60
2022/12/15 10:49:52;;;;;;;15.48;8.20;;;1.90;99.90;;;;;;5032404;28;20483;-60
2022/12/15 10:52:23;;;;;;;15.13;8.15;;;1.80;99.90;;;;;;5032034;28;20084;-59
2022/12/15 10:54:51;;;;;;;16.33;7.50;;;2.10;99.90;;;;;;5037650;28;20060;-60
2022/12/15 10:57:26;;;;;;;15.63;7.60;;;2.20;99.90;;;;;;5031894;28;20057;-60
2022/12/15 10:59:54;;;;;;;12.18;7.25;;;2.30;99.90;;;;;;5032814;28;20049;-59
2022/12/15 11:02:19;;;;;;;15.20;7.10;;;2.40;99.90;;;;;;5031782;28;20132;-60
2022/12/15 11:05:16;;;;;;;12.52;7.40;;;2.50;99.90;;;;;;5046923;28;20538;-58
2022/12/15 11:07:53;;;;;;;14.80;7.72;;;2.50;99.90;;;;;;5021120;28;20114;-60
2022/12/15 11:10:26;;;;;;;13.95;6.85;;;2.60;99.90;;;;;;5032250;28;20042;-59
2022/12/15 11:13:15;;;;;;;13.20;7.03;;;2.60;99.90;;;;;;5030776;28;20146;-60
2022/12/15 11:15:46;;;;;;;14.60;7.78;;;2.60;99.90;;;;;;5031339;28;20041;-60
2022/12/15 11:18:41;;;;;;;14.85;7.72;;;2.60;99.90;;;;;;5033501;28;20048;-60
2022/12/15 11:21:20;;;;;;;16.45;7.72;;;2.60;99.90;;;;;;5028992;28;20057;-60
2022/12/15 11:24:07;;;;;;;15.60;7.55;;;2.50;99.90;;;;;;5031378;28;20049;-60
2022/12/15 11:26:37;;;;;;;11.63;6.90;;;2.50;99.90;;;;;;5028720;28;20045;-59
2022/12/15 11:29:33;;;;;;;15.75;7.43;;;2.50;99.90;;;;;;5029362;28;20044;-60
2022/12/15 11:31:59;;;;;;;13.55;6.65;;;2.40;99.90;;;;;;5024560;28;20048;-60
2022/12/15 11:34:36;;;;;;;14.88;6.70;;;2.40;99.90;;;;;;5035963;28;20045;-59
2022/12/15 11:37:37;;;;;;;19.33;6.78;;;2.40;99.90;;;;;;5032426;28;20746;-60
2022/12/15 11:40:38;;;;;;;18.20;6.90;;;2.40;99.90;;;;;;5029877;28;20131;-60
2022/12/15 11:43:49;;;;;;;14.13;7.00;;;2.40;99.90;;;;;;5029592;28;20048;-59
2022/12/15 11:46:20;;;;;;;20.08;8.48;;;2.40;99.90;;;;;;5025296;28;20087;-59
2022/12/15 11:49:16;;;;;;;15.52;8.02;;;2.40;99.90;;;;;;5032278;28;20046;-60
2022/12/15 11:51:48;;;;;;;16.25;7.20;;;2.40;99.90;;;;;;4995560;28;20045;-60
2022/12/15 11:54:25;;;;;;;16.92;7.03;;;2.40;99.90;;;;;;5030917;28;20046;-58
2022/12/15 11:57:33;;;;;;;11.35;6.60;;;2.30;99.90;;;;;;5028488;28;20041;-60
2022/12/15 12:00:04;;;;;;;12.15;7.32;;;2.40;99.90;;;;;;5005728;28;20214;-60
2022/12/15 12:02:47;;;;;;;17.42;9.00;;;2.30;99.90;;;;;;5029353;28;20050;-60
2022/12/15 12:05:49;;;;;;;20.20;10.73;;;2.30;99.90;;;;;;5030014;28;20099;-60
2022/12/15 12:08:34;;;;;;;19.20;11.32;;;2.40;99.90;;;;;;5035840;28;20046;-60
2022/12/15 12:11:17;;;;;;;18.95;10.32;;;2.30;99.90;;;;;;5029232;28;20042;-60
2022/12/15 12:14:20;;;;;;;17.63;8.60;;;2.40;99.90;;;;;;5031340;28;20077;-60
2022/12/15 12:17:00;;;;;;;14.27;8.15;;;2.40;99.90;;;;;;5027071;28;20094;-60
2022/12/15 12:19:53;;;;;;;15.30;7.93;;;2.40;99.90;;;;;;5030737;28;20171;-60
2022/12/15 12:22:31;;;;;;;10.50;6.57;;;2.40;99.90;;;;;;5030423;28;20137;-60
2022/12/15 12:25:26;;;;;;;17.13;7.80;;;2.40;99.90;;;;;;5035332;28;20049;-59
2022/12/15 12:27:59;;;;;;;14.77;6.15;;;2.50;99.90;;;;;;5014013;28;20053;-59
2022/12/15 12:30:30;;;;;;;15.60;6.22;;;2.40;99.90;;;;;;5030907;28;20060;-59
2022/12/15 12:33:10;;;;;;;14.13;6.57;;;2.40;99.90;;;;;;5032367;28;20041;-60
2022/12/15 12:35:59;;;;;;;10.30;6.00;;;2.40;99.90;;;;;;5033585;28;20114;-60
2022/12/15 12:38:38;;;;;;;13.75;6.05;;;2.40;99.90;;;;;;5034170;28;20526;-60
2022/12/15 12:41:41;;;;;;;16.15;6.50;;;2.40;99.90;;;;;;5020785;28;20095;-60
2022/12/15 12:44:23;;;;;;;;;;;2.50;99.90;;;;;;5018972;28;20522;-60
2022/12/15 12:46:54;;;;;;;13.35;5.90;;;2.50;99.90;;;;;;5026339;28;20339;-60
2022/12/15 12:49:36;;;;;;;13.50;5.90;;;2.60;99.90;;;;;;5031670;28;20059;-60
2022/12/15 12:52:04;;;;;;;9.70;5.65;;;2.60;99.90;;;;;;5032510;28;20060;-60
2022/12/15 12:54:33;;;;;;;14.60;5.90;;;2.70;99.90;;;;;;5032056;28;20569;-60
2022/12/15 12:56:59;;;;;;;12.82;6.15;;;2.80;99.90;;;;;;5030224;28;20072;-60
2022/12/15 12:59:28;;;;;;;11.68;5.90;;;2.90;99.90;;;;;;5039017;28;20045;-60
2022/12/15 13:01:55;;;;;;;16.05;6.40;;;3.00;99.90;;;;;;5039006;28;20056;-60
2022/12/15 13:04:27;;;;;;;11.23;5.30;;;3.10;99.90;;;;;;5031306;28;20663;-60
2022/12/15 13:07:03;;;;;;;17.27;6.28;;;3.20;99.90;;;;;;5027583;28;20512;-60
2022/12/15 13:10:07;;;;;;;14.00;5.90;;;3.30;99.90;;;;;;5037778;28;20464;-60
2022/12/15 13:12:52;;;;;;;9.80;5.45;;;3.40;99.90;;;;;;5033744;28;20053;-60
2022/12/15 13:15:30;;;;;;;13.80;5.50;;;3.50;99.90;;;;;;5036430;28;20191;-60
2022/12/15 13:18:14;;;;;;;12.13;5.47;;;3.50;99.90;;;;;;5032676;28;20068;-60
2022/12/15 13:20:41;;;;;;;9.88;5.70;;;3.50;99.90;;;;;;5027934;28;20064;-60
2022/12/15 13:23:22;;;;;;;12.70;5.82;;;3.50;99.90;;;;;;5027428;28;20048;-60
2022/12/15 13:25:51;;;;;;;13.93;6.20;;;3.50;99.90;;;;;;5024121;28;20053;-60
2022/12/15 13:28:47;;;;;;;11.65;6.25;;;3.50;99.90;;;;;;5026240;28;20041;-60
2022/12/15 13:31:16;;;;;;;14.98;6.82;;;3.50;99.90;;;;;;5029825;28;20343;-61
2022/12/15 13:33:48;;;;;;;20.05;7.30;;;3.40;99.90;;;;;;5023129;28;20100;-60
2022/12/15 13:36:41;;;;;;;20.92;7.80;;;3.30;99.90;;;;;;5021201;28;20072;-60
2022/12/15 13:39:15;;;;;;;20.00;8.10;;;3.30;99.90;;;;;;5020406;28;20077;-60
2022/12/15 13:41:42;;;;;;;18.83;8.25;;;3.30;99.90;;;;;;5020657;28;20049;-61
2022/12/15 13:44:19;;;;;;;14.48;7.35;;;3.10;99.90;;;;;;5023386;28;20056;-60
2022/12/15 13:46:46;;;;;;;11.93;7.88;;;3.10;99.90;;;;;;5021571;28;20045;-60
2022/12/15 13:49:24;;;;;;;15.90;8.05;;;3.10;99.90;;;;;;5005345;28;20670;-58
2022/12/15 13:51:57;;;;;;;18.65;6.50;;;3.00;99.90;;;;;;5026112;28;20055;-61
2022/12/15 13:54:40;;;;;;;15.30;6.15;;;2.90;99.90;;;;;;5024138;28;20044;-60
2022/12/15 13:57:11;;;;;;;13.35;5.53;;;2.90;99.90;;;;;;5020858;28;20092;-60
2022/12/15 13:59:50;;;;;;;14.27;5.88;;;2.90;99.90;;;;;;5035434;28;20044;-60
2022/12/15 14:02:23;;;;;;;12.15;5.68;;;2.80;99.90;;;;;;5028908;28;20061;-60
2022/12/15 14:05:06;;;;;;;17.13;8.68;;;2.80;99.90;;;;;;5030886;28;20037;-61
2022/12/15 14:07:34;;;;;;;17.20;8.95;;;2.90;99.90;;;;;;5031224;28;20119;-60
2022/12/15 14:10:00;;;;;;;21.27;8.88;;;2.80;99.90;;;;;;5032770;28;20077;-60
2022/12/15 14:12:26;;;;;;;16.05;7.57;;;2.80;99.90;;;;;;5038605;28;20122;-61
2022/12/15 14:14:53;;;;;;;16.40;8.40;;;2.80;99.90;;;;;;5032229;28;20057;-61
2022/12/15 14:17:19;;;;;;;14.57;7.32;;;2.80;99.90;;;;;;5031049;28;20123;-61
2022/12/15 14:19:47;;;;;;;13.73;6.35;;;2.90;99.90;;;;;;5030111;28;20822;-60
2022/12/15 14:22:31;;;;;;;15.32;8.15;;;2.80;99.90;;;;;;5033426;28;20063;-61
2022/12/15 14:25:22;;;;;;;13.02;6.80;;;2.80;99.90;;;;;;5023543;28;20130;-60
2022/12/15 14:27:48;;;;;;;13.98;7.13;;;2.80;99.90;;;;;;5021946;28;20052;-60
2022/12/15 14:30:27;;;;;;;14.30;6.28;;;2.80;99.90;;;;;;5025689;28;20057;-60
2022/12/15 14:33:02;;;;;;;13.68;7.03;;;2.80;99.90;;;;;;5028192;28;20519;-60
2022/12/15 14:35:50;;;;;;;14.35;6.70;;;2.80;99.90;;;;;;5025568;28;20471;-60
2022/12/15 14:38:21;;;;;;;11.95;6.38;;;2.80;99.90;;;;;;5030707;28;20048;-60
2022/12/15 14:40:49;;;;;;;12.93;5.90;;;2.80;99.90;;;;;;5020336;28;20491;-60
2022/12/15 14:43:22;;;;;;;13.52;6.05;;;2.80;99.90;;;;;;5027971;28;20499;-60
2022/12/15 14:45:55;;;;;;;;;;;2.80;99.90;;;;;;5031289;28;20041;-60
2022/12/15 14:48:28;;;;;;;12.25;6.10;;;2.80;99.90;;;;;;5031367;28;19920;-60
2022/12/15 14:50:59;;;;;;;13.10;5.72;;;2.70;99.90;;;;;;5027653;28;20044;-60
2022/12/15 14:53:29;;;;;;;12.10;5.13;;;2.80;99.90;;;;;;5031517;28;20052;-60
2022/12/15 14:55:55;;;;;;;13.48;6.43;;;2.70;99.90;;;;;;5027926;28;20155;-60
2022/12/15 14:58:34;;;;;;;15.80;6.13;;;2.70;99.90;;;;;;5031116;28;20132;-60
2022/12/15 15:01:01;;;;;;;15.35;5.90;;;2.70;99.90;;;;;;5025101;28;20171;-61
2022/12/15 15:03:35;;;;;;;14.35;6.60;;;2.70;99.90;;;;;;5006907;28;20111;-60
2022/12/15 15:06:10;;;;;;;18.98;7.50;;;2.70;99.90;;;;;;5037525;28;20045;-60
2022/12/15 15:08:48;;;;;;;13.30;7.40;;;2.60;99.90;;;;;;5023695;28;20036;-60
2022/12/15 15:11:20;;;;;;;16.88;6.68;;;2.60;99.90;;;;;;5029204;28;20032;-60
2022/12/15 15:13:46;;;;;;;15.25;6.70;;;2.60;99.90;;;;;;5028517;28;20762;-60
2022/12/15 15:16:17;;;;;;;15.15;7.00;;;2.60;99.90;;;;;;5032058;28;20048;-60
2022/12/15 15:18:49;;;;;;;14.90;7.20;;;2.50;99.90;;;;;;5020783;28;20412;-60
2022/12/15 15:21:20;;;;;;;13.98;7.13;;;2.50;99.90;;;;;;5027239;28;20057;-61
2022/12/15 15:24:02;;;;;;;16.00;6.32;;;2.40;99.90;;;;;;5027091;28;20060;-60
2022/12/15 15:26:29;;;;;;;13.55;6.32;;;2.40;99.90;;;;;;5019417;28;20105;-60
2022/12/15 15:28:55;;;;;;;15.60;6.47;;;2.40;99.90;;;;;;5020693;28;20146;-60
2022/12/15 15:31:26;;;;;;;14.10;7.18;;;2.30;99.90;;;;;;5022757;28;20412;-60
2022/12/15 15:33:55;;;;;;;15.00;7.13;;;2.20;99.90;;;;;;5026286;28;20052;-60